Time;durP1;ratioP1;P1;durP2;ratioP2;P2;SDS_P1;SDS_P2;PMS_P1;PMS_P2;Temp;Humidity;BMP_temperature;BMP_pressure;BME280_temperature;BME280_humidity;BME280_pressure;Samples;Min_cycle;Max_cycle;Signal;HPM_P1;HPM_P2
2023/12/09 00:00:53;;;;;;;33.47;17.05;;;;;;;4.03;66.41;99512.81;4499437;31;34664;-85
2023/12/09 00:03:21;;;;;;;41.22;33.35;;;;;;;4.23;65.85;99511.97;4507517;31;34126;-87
2023/12/09 00:05:49;;;;;;;28.58;15.32;;;;;;;3.73;66.73;99512.31;4510073;31;33426;-85
2023/12/09 00:08:16;;;;;;;41.13;34.22;;;;;;;4.28;65.67;99505.37;4499390;31;33541;-87
2023/12/09 00:10:44;;;;;;;44.42;35.05;;;;;;;4.19;65.86;99509.22;4499672;31;34155;-88
2023/12/09 00:13:11;;;;;;;45.63;34.88;;;;;;;3.99;66.47;99516.03;4505161;31;33670;-85
2023/12/09 00:15:39;;;;;;;44.13;36.03;;;;;;;3.75;66.90;99519.28;4498976;31;34642;-88
2023/12/09 00:18:07;;;;;;;46.15;36.05;;;;;;;3.56;67.58;99517.56;4504179;31;33640;-87
2023/12/09 00:20:35;;;;;;;31.48;15.68;;;;;;;3.49;67.30;99520.66;4507259;31;34857;-87
2023/12/09 00:23:02;;;;;;;46.37;34.33;;;;;;;3.80;66.97;99520.34;4499471;31;33865;-87
2023/12/09 00:25:30;;;;;;;42.15;32.83;;;;;;;3.34;67.52;99520.81;4510695;31;33579;-87
2023/12/09 00:27:57;;;;;;;30.52;15.52;;;;;;;3.54;67.22;99520.84;4502573;31;34646;-87
2023/12/09 00:30:25;;;;;;;44.83;32.55;;;;;;;3.50;67.04;99514.69;4499528;31;34911;-86
2023/12/09 00:32:53;;;;;;;42.95;33.10;;;;;;;3.47;67.42;99521.37;4512279;31;33104;-87
2023/12/09 00:35:21;;;;;;;40.38;31.87;;;;;;;3.64;66.99;99520.47;4504066;31;33441;-87
2023/12/09 00:37:48;;;;;;;32.30;15.45;;;;;;;2.64;69.89;99514.81;4502080;31;34565;-86
2023/12/09 00:40:17;;;;;;;42.47;33.13;;;;;;;3.56;67.28;99515.00;4501800;31;34296;-87
2023/12/09 00:42:47;;;;;;;41.30;32.85;;;;;;;3.30;67.89;99516.34;4503110;31;33459;-87
2023/12/09 00:45:15;;;;;;;41.92;33.78;;;;;;;3.65;67.23;99517.09;4499483;31;32583;-86
2023/12/09 00:47:43;;;;;;;37.80;17.27;;;;;;;3.55;67.62;99518.34;4514143;31;33638;-86
2023/12/09 00:50:10;;;;;;;25.95;14.75;;;;;;;3.68;67.71;99511.25;4501873;31;34149;-87
2023/12/09 00:52:38;;;;;;;41.50;33.53;;;;;;;4.05;66.48;99514.63;4501649;31;33838;-86
2023/12/09 00:55:06;;;;;;;41.83;33.30;;;;;;;3.81;66.97;99521.22;4501315;31;33686;-87
2023/12/09 00:57:33;;;;;;;28.52;15.32;;;;;;;3.42;67.92;99516.91;4509207;31;33610;-86
2023/12/09 01:00:02;;;;;;;26.20;13.77;;;;;;;4.09;66.67;99513.06;4509594;31;34155;-86
2023/12/09 01:02:31;;;;;;;39.92;32.10;;;;;;;4.25;66.19;99520.63;4500956;31;34834;-87
2023/12/09 01:04:58;;;;;;;42.33;34.10;;;;;;;4.16;66.19;99520.22;4505173;31;34062;-87
2023/12/09 01:07:26;;;;;;;32.75;16.45;;;;;;;3.92;67.06;99516.56;4511288;31;33557;-87
2023/12/09 01:09:54;;;;;;;41.40;33.88;;;;;;;4.58;65.46;99515.16;4514419;31;34917;-87
2023/12/09 01:12:21;;;;;;;43.17;33.28;;;;;;;4.19;66.09;99516.91;4515098;31;32922;-87
2023/12/09 01:14:50;;;;;;;34.28;16.65;;;;;;;3.88;66.89;99519.00;4509225;31;33921;-86
2023/12/09 01:17:18;;;;;;;46.08;34.83;;;;;;;4.18;65.72;99513.47;4506390;31;34221;-87
2023/12/09 01:19:45;;;;;;;32.55;16.00;;;;;;;3.61;67.20;99517.75;4510195;31;34977;-88
2023/12/09 01:22:13;;;;;;;44.33;34.08;;;;;;;4.09;66.52;99513.06;4510505;31;33823;-88
2023/12/09 01:24:40;;;;;;;43.05;33.92;;;;;;;4.00;66.54;99510.09;4498917;31;33088;-87
2023/12/09 01:27:08;;;;;;;34.20;16.23;;;;;;;3.98;66.87;99498.87;4503013;31;33713;-87
2023/12/09 01:29:39;;;;;;;42.65;34.70;;;;;;;4.24;66.39;99506.03;4508103;31;34919;-88
2023/12/09 01:32:07;;;;;;;43.13;33.95;;;;;;;4.18;66.19;99508.34;4505632;31;33826;-86
2023/12/09 01:34:38;;;;;;;31.20;15.95;;;;;;;4.14;66.34;99512.47;4512442;31;33398;-87
2023/12/09 01:37:06;;;;;;;29.05;14.87;;;;;;;4.52;65.70;99509.78;4505333;31;34788;-88
2023/12/09 01:39:33;;;;;;;41.85;33.28;;;;;;;4.58;65.20;99505.78;4514504;31;34137;-86
2023/12/09 01:42:02;;;;;;;40.58;32.50;;;;;;;4.22;65.94;99494.81;4507618;31;33663;-87
2023/12/09 01:44:30;;;;;;;47.97;34.38;;;;;;;4.14;66.32;99503.88;4512599;31;33794;-86
2023/12/09 01:46:58;;;;;;;30.00;15.13;;;;;;;4.34;65.89;99495.34;4508041;31;33627;-87
2023/12/09 01:49:25;;;;;;;44.05;35.40;;;;;;;4.08;66.13;99501.91;4484702;31;34026;-87
2023/12/09 01:51:54;;;;;;;45.47;36.13;;;;;;;3.78;67.01;99503.13;4498595;31;35248;-87
2023/12/09 01:54:21;;;;;;;32.35;15.43;;;;;;;4.06;66.31;99501.00;4506188;31;34471;-87
2023/12/09 01:56:49;;;;;;;44.13;34.63;;;;;;;4.33;65.86;99500.44;4507257;31;33768;-86
2023/12/09 01:59:17;;;;;;;28.45;15.65;;;;;;;4.12;66.24;99502.94;4511177;31;34124;-86
2023/12/09 02:01:45;;;;;;;42.45;35.08;;;;;;;4.06;66.77;99505.25;4500219;31;34448;-86
2023/12/09 02:04:13;;;;;;;44.63;35.65;;;;;;;3.76;66.97;99508.19;4507517;31;34371;-86
2023/12/09 02:06:41;;;;;;;49.50;35.58;;;;;;;2.83;70.42;99503.81;4513279;31;33353;-86
2023/12/09 02:09:09;;;;;;;30.17;15.63;;;;;;;3.35;68.91;99517.44;4508756;31;33787;-87
2023/12/09 02:11:44;;;;;;;45.20;36.00;;;;;;;3.71;67.88;99516.47;4501007;31;33533;-86
2023/12/09 02:14:16;;;;;;;30.40;16.48;;;;;;;3.72;67.71;99514.00;4484335;31;33584;-87
2023/12/09 02:17:40;;;;;;;30.58;15.25;;;;;;;3.49;68.81;99512.06;4498145;31;34034;-86
2023/12/09 02:20:11;;;;;;;48.83;36.35;;;;;;;3.77;67.68;99509.06;4478657;31;34870;-85
2023/12/09 02:22:38;;;;;;;48.15;37.10;;;;;;;3.83;67.32;99504.22;4495925;31;34542;-86
2023/12/09 02:25:06;;;;;;;32.17;16.52;;;;;;;3.87;67.43;99507.00;4508444;31;33136;-87
2023/12/09 02:27:59;;;;;;;44.15;34.35;;;;;;;4.28;66.42;99504.47;4501470;31;33609;-85
2023/12/09 02:30:49;;;;;;;46.60;34.22;;;;;;;4.21;66.63;99505.03;4507744;31;34127;-85
2023/12/09 02:33:20;;;;;;;33.55;15.73;;;;;;;4.15;67.15;99503.94;4497608;31;33796;-86
2023/12/09 02:35:50;;;;;;;32.97;15.73;;;;;;;4.59;65.78;99498.97;4488797;31;34328;-86
2023/12/09 02:38:18;;;;;;;43.10;33.65;;;;;;;4.59;65.69;99498.97;4493231;31;34777;-86
2023/12/09 02:40:46;;;;;;;46.13;35.95;;;;;;;4.03;66.90;99492.28;4489972;31;34074;-86
2023/12/09 02:43:14;;;;;;;35.25;17.00;;;;;;;3.99;67.12;99490.41;4500787;31;33737;-87
2023/12/09 02:45:44;;;;;;;46.65;35.70;;;;;;;4.12;67.17;99492.66;4500370;31;33231;-86
2023/12/09 02:48:12;;;;;;;47.55;38.20;;;;;;;3.56;68.25;99499.63;4491485;31;33325;-87
2023/12/09 02:50:40;;;;;;;32.67;15.88;;;;;;;3.59;68.13;99496.28;4509356;31;35168;-85
2023/12/09 02:53:07;;;;;;;44.35;37.60;;;;;;;3.89;67.48;99495.09;4495784;31;34683;-86
2023/12/09 02:55:35;;;;;;;44.20;34.50;;;;;;;3.76;67.73;99507.31;4504435;31;33415;-87
2023/12/09 02:58:02;;;;;;;46.97;36.63;;;;;;;3.98;67.05;99498.87;4515955;31;33717;-88
2023/12/09 03:00:30;;;;;;;48.42;37.65;;;;;;;3.74;67.81;99504.69;4500184;31;34849;-87
2023/12/09 03:02:57;;;;;;;37.22;16.35;;;;;;;3.63;68.14;99511.00;4502046;31;34701;-86
2023/12/09 03:05:25;;;;;;;41.95;35.03;;;;;;;4.23;66.81;99503.41;4494710;31;34295;-87
2023/12/09 03:07:53;;;;;;;30.37;16.75;;;;;;;4.10;66.76;99504.56;4508229;31;34596;-87
2023/12/09 03:10:20;;;;;;;43.53;35.15;;;;;;;4.29;66.67;99506.25;4515008;31;33820;-88
2023/12/09 03:12:48;;;;;;;45.35;35.83;;;;;;;3.94;67.35;99515.84;4502877;31;33845;-86
2023/12/09 03:15:15;;;;;;;29.63;15.02;;;;;;;3.91;67.38;99510.56;4506040;31;34067;-85
2023/12/09 03:17:43;;;;;;;44.67;34.88;;;;;;;3.70;67.96;99520.72;4515054;31;33268;-86
2023/12/09 03:20:11;;;;;;;46.40;36.05;;;;;;;3.89;67.52;99525.88;4513297;31;34792;-86
2023/12/09 03:22:38;;;;;;;36.03;17.10;;;;;;;3.81;67.55;99524.66;4503111;31;34454;-86
2023/12/09 03:25:06;;;;;;;42.08;33.60;;;;;;;3.99;67.60;99521.19;4514943;31;33079;-87
2023/12/09 03:27:33;;;;;;;43.30;36.55;;;;;;;4.22;66.66;99523.06;4515086;31;34621;-87
2023/12/09 03:30:02;;;;;;;44.90;34.88;;;;;;;3.93;67.38;99528.59;4508202;31;33587;-87
2023/12/09 03:32:30;;;;;;;27.52;14.60;;;;;;;4.12;67.04;99523.47;4501968;31;34197;-85
2023/12/09 03:34:58;;;;;;;30.45;16.08;;;;;;;4.45;66.08;99513.78;4513822;31;34163;-86
2023/12/09 03:37:26;;;;;;;36.53;17.23;;;;;;;4.56;65.74;99521.94;4505887;31;33890;-86
2023/12/09 03:39:54;;;;;;;45.03;34.95;;;;;;;4.50;65.58;99524.22;4510471;31;33934;-84
2023/12/09 03:42:21;;;;;;;40.90;33.08;;;;;;;4.30;66.30;99518.25;4501110;31;33885;-86
2023/12/09 03:44:49;;;;;;;44.95;34.90;;;;;;;3.96;67.10;99526.16;4513597;31;33081;-86
2023/12/09 03:47:16;;;;;;;41.63;33.53;;;;;;;4.19;66.70;99519.47;4514953;31;33241;-86
2023/12/09 03:49:55;;;;;;;42.80;34.53;;;;;;;4.41;66.04;99532.44;4511815;31;34208;-85
2023/12/09 03:52:23;;;;;;;43.58;33.72;;;;;;;4.34;66.14;99533.84;4513090;31;33804;-86
2023/12/09 03:54:51;;;;;;;41.37;33.35;;;;;;;4.25;66.34;99525.75;4503555;31;33096;-87
2023/12/09 03:57:18;;;;;;;43.70;33.40;;;;;;;4.13;66.79;99527.81;4503470;31;33602;-86
2023/12/09 03:59:46;;;;;;;30.65;16.65;;;;;;;4.15;66.70;99528.72;4504779;31;34577;-86
2023/12/09 04:02:14;;;;;;;30.33;15.18;;;;;;;4.36;66.42;99529.66;4514625;31;33721;-86
2023/12/09 04:04:42;;;;;;;39.88;31.87;;;;;;;4.54;65.88;99531.25;4500838;31;33512;-86
2023/12/09 04:07:09;;;;;;;42.22;33.47;;;;;;;4.36;66.14;99539.06;4502978;31;34707;-86
2023/12/09 04:09:36;;;;;;;42.15;32.83;;;;;;;4.27;66.48;99531.81;4514108;31;35195;-87
2023/12/09 04:12:04;;;;;;;45.33;34.38;;;;;;;4.27;66.37;99534.38;4515152;31;34140;-86
2023/12/09 04:14:32;;;;;;;27.80;14.40;;;;;;;3.99;67.17;99534.88;4514402;31;34500;-86
2023/12/09 04:16:59;;;;;;;43.33;33.92;;;;;;;4.43;66.21;99530.78;4505795;31;33515;-86
2023/12/09 04:19:29;;;;;;;44.33;35.33;;;;;;;4.05;66.69;99526.56;4499293;31;35287;-85
2023/12/09 04:21:57;;;;;;;48.10;37.35;;;;;;;3.55;68.22;99536.28;4506002;31;33590;-86
2023/12/09 04:24:24;;;;;;;26.27;14.80;;;;;;;3.58;67.81;99538.13;4506927;31;33611;-85
2023/12/09 04:26:52;;;;;;;46.08;36.03;;;;;;;3.36;68.88;99534.53;4506938;31;33650;-86
2023/12/09 04:29:20;;;;;;;32.92;15.98;;;;;;;3.10;69.19;99535.87;4510606;31;33831;-86
2023/12/09 04:31:47;;;;;;;32.60;15.35;;;;;;;3.55;68.21;99530.28;4499220;31;33691;-86
2023/12/09 04:34:15;;;;;;;50.33;38.70;;;;;;;3.71;67.89;99534.44;4500781;31;33500;-87
2023/12/09 04:36:42;;;;;;;32.22;15.77;;;;;;;3.73;67.94;99535.37;4499141;31;33602;-86
2023/12/09 04:39:10;;;;;;;49.83;37.83;;;;;;;4.22;66.84;99541.03;4498959;31;34134;-86
2023/12/09 04:41:38;;;;;;;44.10;34.88;;;;;;;3.88;67.43;99539.53;4499520;31;33776;-86
2023/12/09 04:44:05;;;;;;;43.53;34.08;;;;;;;3.85;67.71;99547.06;4511853;31;34821;-84
2023/12/09 04:46:33;;;;;;;35.63;16.02;;;;;;;3.92;67.46;99539.66;4515193;31;34363;-87
2023/12/09 04:49:00;;;;;;;26.02;14.00;;;;;;;4.29;66.77;99539.62;4508934;31;33892;-87
2023/12/09 04:51:28;;;;;;;43.03;34.30;;;;;;;4.36;66.72;99532.25;4505085;31;33913;-87
2023/12/09 04:53:55;;;;;;;43.85;34.00;;;;;;;4.22;66.50;99528.19;4499228;31;33545;-88
2023/12/09 04:56:23;;;;;;;29.83;15.27;;;;;;;4.27;66.29;99534.38;4499127;31;33523;-87
2023/12/09 04:58:51;;;;;;;42.30;32.70;;;;;;;4.37;66.41;99539.13;4503076;31;33788;-86
2023/12/09 05:01:18;;;;;;;41.97;32.58;;;;;;;4.12;66.57;99543.97;4505111;31;33962;-87
2023/12/09 05:03:47;;;;;;;40.25;32.65;;;;;;;4.02;67.14;99541.84;4484706;31;33157;-86
2023/12/09 05:06:14;;;;;;;38.33;31.70;;;;;;;4.04;66.95;99545.34;4499314;31;34717;-87
2023/12/09 05:08:42;;;;;;;31.67;15.82;;;;;;;3.93;67.37;99546.53;4502069;31;33633;-86
2023/12/09 05:11:10;;;;;;;38.70;31.75;;;;;;;4.33;66.53;99534.66;4500159;31;34472;-86
2023/12/09 05:13:37;;;;;;;41.45;31.25;;;;;;;4.19;66.52;99543.44;4504168;31;33537;-87
2023/12/09 05:16:05;;;;;;;27.85;13.95;;;;;;;4.07;66.75;99550.59;4514446;31;34523;-87
2023/12/09 05:18:34;;;;;;;38.63;30.33;;;;;;;4.49;65.81;99535.31;4503763;31;33891;-87
2023/12/09 05:21:04;;;;;;;28.05;14.63;;;;;;;4.08;66.51;99531.84;4486039;31;33669;-88
2023/12/09 05:23:33;;;;;;;38.53;31.27;;;;;;;4.43;65.91;99532.47;4499392;31;33432;-87
2023/12/09 05:26:01;;;;;;;29.05;13.90;;;;;;;4.42;65.71;99541.00;4498748;31;33809;-88
2023/12/09 05:28:30;;;;;;;37.72;30.95;;;;;;;4.73;64.75;99536.34;4499533;31;34995;-87
2023/12/09 05:30:57;;;;;;;26.77;14.68;;;;;;;4.53;64.95;99542.34;4499756;31;34619;-84
2023/12/09 05:33:25;;;;;;;37.45;30.33;;;;;;;4.66;64.80;99538.59;4503460;31;33912;-87
2023/12/09 05:35:52;;;;;;;37.33;30.70;;;;;;;4.53;64.79;99552.63;4499448;31;34057;-86
2023/12/09 05:38:20;;;;;;;37.72;30.88;;;;;;;4.22;65.55;99551.28;4506892;31;34972;-86
2023/12/09 05:40:47;;;;;;;38.95;31.98;;;;;;;4.33;65.48;99559.47;4505334;31;33832;-85
2023/12/09 05:43:15;;;;;;;27.85;13.65;;;;;;;4.13;66.04;99571.44;4514647;31;34058;-86
2023/12/09 05:45:42;;;;;;;37.80;31.60;;;;;;;4.37;65.65;99562.22;4510583;31;33484;-85
2023/12/09 05:48:10;;;;;;;29.80;14.25;;;;;;;4.10;66.18;99561.88;4498718;31;34101;-84
2023/12/09 05:50:38;;;;;;;40.63;32.58;;;;;;;4.29;66.17;99557.56;4511283;31;33907;-85
2023/12/09 05:53:07;;;;;;;30.17;15.20;;;;;;;4.11;66.30;99561.06;4505346;31;33676;-85
2023/12/09 05:55:34;;;;;;;24.05;12.55;;;;;;;4.44;65.77;99547.09;4498306;31;33899;-84
2023/12/09 05:58:02;;;;;;;24.98;13.23;;;;;;;4.45;65.72;99543.72;4505119;31;34794;-85
2023/12/09 06:00:30;;;;;;;38.88;31.33;;;;;;;4.46;65.57;99546.34;4504973;31;33825;-85
2023/12/09 06:03:00;;;;;;;38.78;32.83;;;;;;;4.04;66.37;99545.34;4498411;31;33131;-87
2023/12/09 06:05:27;;;;;;;36.67;31.67;;;;;;;3.32;67.52;99550.59;4498227;31;33507;-86
2023/12/09 06:07:55;;;;;;;37.67;31.27;;;;;;;3.65;66.97;99556.41;4498935;31;34023;-85
2023/12/09 06:10:22;;;;;;;37.97;30.73;;;;;;;3.90;66.45;99552.41;4498309;31;33612;-85
2023/12/09 06:12:50;;;;;;;38.28;31.65;;;;;;;3.85;66.67;99549.63;4497799;31;33805;-84
2023/12/09 06:15:18;;;;;;;26.65;15.32;;;;;;;3.80;66.87;99548.56;4501448;31;33983;-85
2023/12/09 06:17:46;;;;;;;39.55;31.08;;;;;;;4.18;66.21;99549.41;4508947;31;35147;-88
2023/12/09 06:20:14;;;;;;;38.63;31.37;;;;;;;4.26;65.76;99553.19;4513693;31;33626;-86
2023/12/09 06:22:42;;;;;;;38.85;32.22;;;;;;;4.21;65.56;99554.66;4514184;31;33582;-85
2023/12/09 06:25:10;;;;;;;25.77;15.18;;;;;;;4.08;66.24;99554.91;4496553;31;33847;-85
2023/12/09 06:27:37;;;;;;;40.15;32.75;;;;;;;4.25;65.94;99543.72;4503597;31;34076;-85
2023/12/09 06:30:05;;;;;;;40.88;33.42;;;;;;;4.18;66.12;99551.97;4497307;31;32526;-85
2023/12/09 06:32:33;;;;;;;40.38;32.83;;;;;;;3.97;66.67;99553.56;4506692;31;34328;-86
2023/12/09 06:35:01;;;;;;;41.00;33.22;;;;;;;4.09;66.47;99549.88;4498489;31;32949;-87
2023/12/09 06:37:28;;;;;;;40.00;32.85;;;;;;;4.16;66.41;99553.56;4483108;31;34099;-86
2023/12/09 06:39:56;;;;;;;43.53;34.30;;;;;;;4.28;65.67;99554.13;4497983;31;33456;-85
2023/12/09 06:42:24;;;;;;;31.27;14.45;;;;;;;4.38;65.35;99555.41;4506119;31;32994;-85
2023/12/09 06:44:52;;;;;;;42.45;34.47;;;;;;;4.33;65.58;99559.47;4505003;31;34584;-85
2023/12/09 06:47:19;;;;;;;42.03;33.03;;;;;;;4.23;65.89;99547.91;4513727;31;34892;-86
2023/12/09 06:49:47;;;;;;;42.88;34.35;;;;;;;4.09;66.44;99556.66;4513698;31;33871;-86
2023/12/09 06:52:15;;;;;;;41.88;33.95;;;;;;;4.22;66.12;99546.16;4513526;31;34451;-86
2023/12/09 06:54:42;;;;;;;44.92;37.15;;;;;;;4.31;65.66;99551.69;4513555;31;33693;-86
2023/12/09 06:57:10;;;;;;;33.20;17.73;;;;;;;3.81;66.77;99552.00;4513624;31;33841;-86
2023/12/09 06:59:37;;;;;;;41.03;33.17;;;;;;;4.28;65.92;99551.56;4513369;31;34331;-86
2023/12/09 07:02:05;;;;;;;43.40;33.28;;;;;;;4.18;65.89;99557.09;4513420;31;34303;-85
2023/12/09 07:04:35;;;;;;;41.83;33.95;;;;;;;4.16;66.21;99561.28;4507342;31;33880;-85
2023/12/09 07:07:03;;;;;;;42.88;33.88;;;;;;;4.23;65.85;99559.87;4505511;31;35217;-86
2023/12/09 07:09:31;;;;;;;26.30;14.15;;;;;;;4.39;65.67;99560.63;4510554;31;33470;-86
2023/12/09 07:11:58;;;;;;;39.47;19.17;;;;;;;4.50;65.66;99562.75;4510490;31;34235;-85
2023/12/09 07:14:29;;;;;;;47.08;37.28;;;;;;;3.73;67.52;99564.47;4513238;31;34179;-85
2023/12/09 07:16:57;;;;;;;48.63;38.70;;;;;;;3.71;67.11;99567.75;4502531;31;33733;-86
2023/12/09 07:19:24;;;;;;;50.03;42.22;;;;;;;3.42;67.48;99568.16;4497225;31;33787;-86
2023/12/09 07:21:52;;;;;;;37.08;18.80;;;;;;;3.09;69.21;99571.66;4497494;31;33408;-86
2023/12/09 07:24:20;;;;;;;51.17;40.65;;;;;;;3.80;67.37;99569.06;4498277;31;33857;-86
2023/12/09 07:26:47;;;;;;;45.25;36.78;;;;;;;3.73;67.38;99572.16;4499951;31;34071;-87
2023/12/09 07:29:15;;;;;;;26.90;15.35;;;;;;;3.88;67.39;99572.88;4499580;31;34367;-88
2023/12/09 07:31:42;;;;;;;45.97;36.75;;;;;;;3.80;67.58;99570.75;4499605;31;33631;-87
2023/12/09 07:34:16;;;;;;;47.33;38.63;;;;;;;3.93;67.41;99574.75;4499940;31;34597;-87
2023/12/09 07:36:44;;;;;;;47.70;37.15;;;;;;;4.10;66.69;99573.84;4506454;31;35042;-87
2023/12/09 07:39:11;;;;;;;33.47;17.87;;;;;;;2.87;68.90;99570.59;4514994;31;34089;-86
2023/12/09 07:41:40;;;;;;;48.83;38.92;;;;;;;2.77;69.37;99581.22;4502819;31;34157;-87
2023/12/09 07:44:07;;;;;;;32.70;16.10;;;;;;;2.61;70.10;99581.22;4516090;31;33787;-88
2023/12/09 07:46:36;;;;;;;48.87;37.60;;;;;;;2.93;68.91;99570.91;4513715;31;34023;-86
2023/12/09 07:49:03;;;;;;;38.60;19.30;;;;;;;2.75;69.59;99581.94;4502283;31;33068;-88
2023/12/09 07:51:31;;;;;;;52.22;41.45;;;;;;;3.17;68.82;99580.59;4499787;31;34106;-85
2023/12/09 07:53:58;;;;;;;41.40;20.20;;;;;;;2.82;69.96;99582.31;4499729;31;34630;-87
2023/12/09 07:56:26;;;;;;;54.55;45.28;;;;;;;2.76;70.33;99565.75;4500418;31;35067;-88
2023/12/09 07:58:53;;;;;;;39.42;19.95;;;;;;;2.88;70.34;99569.81;4499752;31;33762;-89
2023/12/09 08:01:21;;;;;;;55.28;42.47;;;;;;;3.36;68.77;99567.88;4499494;31;33891;-87
2023/12/09 08:03:49;;;;;;;38.90;18.70;;;;;;;2.94;69.60;99571.78;4499239;31;34691;-88
2023/12/09 08:06:16;;;;;;;56.58;43.13;;;;;;;3.68;67.81;99571.09;4485623;31;33820;-87
2023/12/09 08:08:44;;;;;;;36.75;18.92;;;;;;;2.80;69.72;99580.47;4499626;31;34528;-86
2023/12/09 08:11:11;;;;;;;52.53;40.63;;;;;;;3.07;69.67;99568.13;4499505;31;33224;-88
2023/12/09 08:13:39;;;;;;;49.83;36.97;;;;;;;2.82;69.73;99555.84;4499855;31;33744;-87
2023/12/09 08:16:07;;;;;;;31.37;16.73;;;;;;;2.31;70.82;99573.75;4499338;31;34897;-87
2023/12/09 08:18:34;;;;;;;46.63;36.85;;;;;;;2.80;70.01;99565.97;4499198;31;34344;-87
2023/12/09 08:21:02;;;;;;;42.55;18.23;;;;;;;3.16;68.69;99569.47;4499510;31;33790;-87
2023/12/09 08:23:29;;;;;;;37.30;19.12;;;;;;;3.03;69.21;99574.81;4499706;31;33496;-87
2023/12/09 08:25:57;;;;;;;52.67;42.25;;;;;;;3.46;68.11;99573.44;4499495;31;34124;-87
2023/12/09 08:28:27;;;;;;;41.17;19.00;;;;;;;3.00;69.28;99568.66;4499628;31;34356;-87
2023/12/09 08:30:54;;;;;;;56.28;42.67;;;;;;;3.49;67.89;99563.34;4499718;31;33150;-87
2023/12/09 08:33:22;;;;;;;31.10;17.45;;;;;;;3.33;68.30;99570.31;4500458;31;34010;-88
2023/12/09 08:35:50;;;;;;;53.85;40.75;;;;;;;2.81;69.51;99575.44;4514839;31;34593;-87
2023/12/09 08:38:17;;;;;;;39.97;20.23;;;;;;;2.85;69.46;99571.34;4515594;31;33888;-87
2023/12/09 08:40:45;;;;;;;39.88;19.12;;;;;;;3.30;68.01;99566.72;4504674;31;34287;-87
2023/12/09 08:43:12;;;;;;;40.95;18.20;;;;;;;2.87;69.58;99568.03;4515189;31;33909;-88
2023/12/09 08:45:39;;;;;;;44.65;24.75;;;;;;;3.43;68.46;99569.03;4500500;31;33405;-87
2023/12/09 08:48:08;;;;;;;53.53;40.47;;;;;;;2.85;69.92;99566.22;4515035;31;33487;-87
2023/12/09 08:50:36;;;;;;;34.33;18.45;;;;;;;2.87;69.46;99575.72;4506538;31;34189;-88
2023/12/09 08:53:04;;;;;;;34.97;19.08;;;;;;;3.16;68.85;99577.16;4485005;31;33223;-86
2023/12/09 08:55:32;;;;;;;51.13;41.58;;;;;;;3.08;68.69;99577.59;4499734;31;34049;-87
2023/12/09 08:57:59;;;;;;;38.90;19.42;;;;;;;2.85;69.91;99577.34;4499441;31;33543;-87
2023/12/09 09:00:27;;;;;;;43.15;21.12;;;;;;;3.01;69.41;99578.97;4499383;31;33616;-87
2023/12/09 09:02:55;;;;;;;60.30;44.42;;;;;;;3.02;69.42;99584.97;4499197;31;34648;-87
2023/12/09 09:05:24;;;;;;;36.20;19.75;;;;;;;3.14;69.43;99583.91;4501482;31;34194;-87
2023/12/09 09:07:51;;;;;;;41.55;19.35;;;;;;;3.69;67.98;99580.53;4500656;31;34099;-87
2023/12/09 09:10:19;;;;;;;55.92;44.33;;;;;;;3.90;67.56;99571.25;4514979;31;33315;-86
2023/12/09 09:12:47;;;;;;;64.62;47.53;;;;;;;3.49;68.28;99576.16;4515103;31;35008;-88
2023/12/09 09:15:16;;;;;;;36.53;18.90;;;;;;;4.09;66.35;99583.25;4513461;31;34152;-87
2023/12/09 09:17:44;;;;;;;52.60;42.17;;;;;;;3.53;67.62;99575.50;4484785;31;33578;-87
2023/12/09 09:20:11;;;;;;;55.58;21.87;;;;;;;2.64;70.84;99581.37;4499081;31;33507;-87
2023/12/09 09:22:39;;;;;;;59.55;46.33;;;;;;;3.71;67.91;99581.44;4499355;31;34745;-87
2023/12/09 09:25:13;;;;;;;39.13;18.17;;;;;;;3.65;67.60;99566.69;4486037;31;33396;-87
2023/12/09 09:27:40;;;;;;;51.28;40.97;;;;;;;3.61;67.96;99569.03;4500499;31;33813;-87
2023/12/09 09:30:08;;;;;;;66.70;50.35;;;;;;;4.00;66.26;99569.09;4514921;31;33502;-87
2023/12/09 09:32:35;;;;;;;37.60;19.95;;;;;;;3.27;68.50;99567.44;4515130;31;33778;-88
2023/12/09 09:35:03;;;;;;;40.58;20.60;;;;;;;3.44;68.48;99569.91;4515089;31;34513;-86
2023/12/09 09:37:31;;;;;;;51.25;42.00;;;;;;;3.62;67.80;99569.09;4485152;31;33269;-86
2023/12/09 09:39:58;;;;;;;40.58;19.58;;;;;;;3.37;68.17;99564.53;4484792;31;33684;-85
2023/12/09 09:42:32;;;;;;;51.70;40.63;;;;;;;3.76;67.45;99564.63;4499190;31;33488;-85
2023/12/09 09:45:22;;;;;;;56.65;45.17;;;;;;;2.59;70.63;99563.25;4499181;31;34247;-86
2023/12/09 09:47:57;;;;;;;39.50;20.25;;;;;;;2.77;71.10;99568.41;4497431;31;33729;-87
2023/12/09 09:50:26;;;;;;;65.37;49.58;;;;;;;2.74;71.13;99560.56;4497878;31;33339;-88
2023/12/09 09:52:54;;;;;;;41.42;21.00;;;;;;;2.95;70.37;99549.63;4499192;31;33953;-88
2023/12/09 09:55:23;;;;;;;39.08;18.67;;;;;;;3.27;70.00;99552.06;4499086;31;33917;-86
2023/12/09 09:57:50;;;;;;;55.85;42.90;;;;;;;3.26;70.21;99545.19;4498760;31;33937;-87
2023/12/09 10:00:19;;;;;;;42.33;19.45;;;;;;;2.93;70.31;99540.19;4509948;31;34346;-87
2023/12/09 10:02:50;;;;;;;54.05;41.72;;;;;;;3.08;70.57;99539.19;4484582;31;33980;-87
2023/12/09 10:05:22;;;;;;;58.13;44.77;;;;;;;2.81;71.25;99534.47;4498847;31;34568;-87
2023/12/09 10:07:51;;;;;;;39.42;20.08;;;;;;;3.33;69.83;99537.00;4513185;31;33877;-85
2023/12/09 10:10:18;;;;;;;57.75;44.95;;;;;;;3.51;69.27;99541.19;4514630;31;33278;-85
2023/12/09 10:12:46;;;;;;;39.88;18.77;;;;;;;3.61;68.77;99528.87;4506863;31;34646;-85
2023/12/09 10:15:14;;;;;;;37.15;18.92;;;;;;;3.76;68.62;99533.84;4514529;31;33889;-86
2023/12/09 10:17:41;;;;;;;49.28;41.08;;;;;;;3.76;67.98;99528.72;4514336;31;33673;-86
2023/12/09 10:20:10;;;;;;;45.47;20.73;;;;;;;3.59;68.41;99529.63;4500227;31;33115;-87
2023/12/09 10:22:38;;;;;;;60.53;46.90;;;;;;;3.40;69.04;99522.75;4494355;31;34300;-85
2023/12/09 10:25:07;;;;;;;57.62;46.10;;;;;;;3.28;70.03;99519.63;4498340;31;34012;-85
2023/12/09 10:27:35;;;;;;;45.65;23.87;;;;;;;2.86;71.48;99514.19;4498259;31;33466;-85
2023/12/09 10:30:03;;;;;;;40.00;19.75;;;;;;;3.39;70.06;99506.50;4498255;31;33983;-85
2023/12/09 10:32:32;;;;;;;40.03;20.12;;;;;;;3.69;68.89;99506.16;4502339;31;33675;-85
2023/12/09 10:35:00;;;;;;;43.92;22.40;;;;;;;3.62;69.25;99504.13;4514280;31;35079;-85
2023/12/09 10:37:32;;;;;;;40.47;21.73;;;;;;;3.74;68.74;99509.81;4514055;31;34503;-85
2023/12/09 10:40:02;;;;;;;58.97;47.00;;;;;;;3.48;69.48;99502.59;4507136;31;33340;-87
2023/12/09 10:42:30;;;;;;;40.83;20.48;;;;;;;3.56;69.39;99497.06;4501401;31;33281;-87
2023/12/09 10:45:02;;;;;;;63.75;50.12;;;;;;;3.82;68.46;99497.31;4513915;31;33670;-86
2023/12/09 10:47:29;;;;;;;59.97;47.15;;;;;;;3.28;69.64;99491.44;4514178;31;33826;-86
2023/12/09 10:49:57;;;;;;;65.55;49.75;;;;;;;2.93;70.88;99488.97;4506990;31;34346;-85
2023/12/09 10:52:24;;;;;;;63.97;51.40;;;;;;;3.40;69.53;99487.75;4483255;31;33774;-85
2023/12/09 10:54:52;;;;;;;41.80;22.15;;;;;;;3.25;70.17;99489.59;4483391;31;34202;-85
2023/12/09 10:57:20;;;;;;;60.42;48.17;;;;;;;3.96;68.42;99491.13;4497888;31;34164;-86
2023/12/09 10:59:47;;;;;;;45.50;20.85;;;;;;;4.02;67.79;99485.41;4484468;31;34609;-85
2023/12/09 11:02:17;;;;;;;56.05;44.00;;;;;;;4.20;67.37;99486.16;4485470;31;34492;-85
2023/12/09 11:04:45;;;;;;;42.88;21.33;;;;;;;3.51;67.87;99495.06;4499823;31;33911;-87
2023/12/09 11:07:15;;;;;;;65.30;48.63;;;;;;;4.06;66.88;99482.16;4485748;31;34047;-85
2023/12/09 11:09:42;;;;;;;60.08;46.78;;;;;;;3.98;67.01;99471.56;4489704;31;33538;-86
2023/12/09 11:12:10;;;;;;;60.88;47.05;;;;;;;3.34;69.29;99476.38;4514019;31;33758;-86
2023/12/09 11:14:38;;;;;;;45.97;22.45;;;;;;;3.35;68.79;99473.84;4483044;31;33574;-84
2023/12/09 11:17:33;;;;;;;61.88;47.65;;;;;;;3.33;69.45;99470.38;4501282;31;34899;-84
2023/12/09 11:20:09;;;;;;;49.72;22.65;;;;;;;3.21;70.13;99474.91;4487934;31;33513;-88
2023/12/09 11:22:41;;;;;;;46.55;21.70;;;;;;;3.39;69.81;99470.62;4485708;31;34519;-84
2023/12/09 11:25:18;;;;;;;62.38;49.58;;;;;;;3.81;68.43;99469.94;4501789;31;34184;-86
2023/12/09 11:27:49;;;;;;;49.17;23.55;;;;;;;2.77;71.45;99481.38;4505004;31;34680;-85
2023/12/09 11:30:38;;;;;;;67.32;49.83;;;;;;;3.31;69.73;99471.09;4492496;31;33478;-84